Central Oregon RPC :: LAKEVIEW, OR A

liberation: 2021-04-23  07:00     latitude: 42.211122     longitude: -120.355558 110 birds
# LOFT PRING MILES ARRIVAL SPEED ToWin
1 ROCKY TOP AU18-CORP-3386 145.004 2021-04-23 09:43:35.440 1560.039 00:00:00
2 ROCKY TOP AU19-CORP-4465 145.004 2021-04-23 09:43:38.950 1559.481 00:00:04
3 ROCKY TOP AU20-CORP-4433 145.004 2021-04-23 09:43:39.887 1559.332 00:00:04
4 ROCKY TOP AU18-CORP-3334 145.004 2021-04-23 09:43:41.392 1559.093 00:00:06
5 ROCKY TOP AU19-CORP-4420 145.004 2021-04-23 09:43:48.415 1557.979 00:00:13
6 ROCKY TOP AU20-CORP-4471 145.004 2021-04-23 09:43:50.938 1557.579 00:00:16
7 TOPIGEONUSA AU19-CORP-5134 152.123 2021-04-23 09:52:01.680 1556.350 00:00:24
8 ROCKY TOP AU20-CORP-4451 145.004 2021-04-23 09:44:05.993 1555.198 00:00:31
9 ROCKY TOP AU19-CORP-4421 145.004 2021-04-23 09:44:06.370 1555.138 00:00:31
10 ROCKY TOP AU19-ARPU-29027 145.004 2021-04-23 09:44:15.709 1553.664 00:00:40
11 STEELE LOFT AU20-CORP-5080 152.432 2021-04-23 09:52:52.859 1551.820 00:00:55
12 ROCKY TOP AU20-CORP-4404 145.004 2021-04-23 09:44:33.762 1550.824 00:00:58
13 STEELE LOFT AU19-CORP-4008 152.432 2021-04-23 09:53:03.733 1550.195 00:01:06
13 TOPIGEONUSA AU20-CORP-4375 152.123 2021-04-23 09:52:42.662 1550.195 00:01:05
14 TOPIGEONUSA AU20-CORP-4325 152.123 2021-04-23 09:52:46.568 1549.611 00:01:09
15 TOPIGEONUSA AU20-CORP-4331 152.123 2021-04-23 09:52:59.788 1547.637 00:01:23
16 STEELE LOFT AU20-CORP-5043 152.432 2021-04-23 09:55:40.455 1527.145 00:03:42
17 TOPIGEONUSA AU19-CORP-5151 152.123 2021-04-23 09:56:29.975 1516.920 00:04:53
18 TOPIGEONUSA AU19-CORP-4991 152.123 2021-04-23 09:56:31.969 1516.635 00:04:55
19 TOPIGEONUSA AU20-CORP-4373 152.123 2021-04-23 09:56:40.788 1515.373 00:05:04
20 STEELE LOFT AU19-AVI-19525 152.432 2021-04-23 09:57:05.647 1514.901 00:05:07
21 STEELE LOFT AU19-CORP-4007 152.432 2021-04-23 09:57:07.329 1514.662 00:05:09
22 STEELE LOFT AU19-CORP-4022 152.432 2021-04-23 09:57:09.696 1514.324 00:05:11
23 STEELE LOFT AU20-AVI-19520 152.432 2021-04-23 09:57:13.817 1513.737 00:05:16
24 STEELE LOFT AU20-CORP-5002 152.432 2021-04-23 09:57:32.953 1511.018 00:05:35
25 ROCKY TOP AU18-CORP-3335 145.004 2021-04-23 09:49:48.064 1502.981 00:06:13
26 TOPIGEONUSA AU20-CORP-4830 152.123 2021-04-23 09:58:10.684 1502.630 00:06:33
27 TOPIGEONUSA AU20-CORP-4378 152.123 2021-04-23 09:58:12.187 1502.419 00:06:35
28 TOPIGEONUSA AU19-CORP-4907 152.123 2021-04-23 09:58:13.682 1502.209 00:06:36
29 TOPIGEONUSA AU20-CORP-4310 152.123 2021-04-23 09:58:14.047 1502.158 00:06:37
30 ROCKY TOP AU19-CORP-4431 145.004 2021-04-23 09:49:57.278 1501.623 00:06:22
31 ROCKY TOP AU20-ARPU-28101 145.004 2021-04-23 09:49:59.855 1501.243 00:06:24
32 ROCKY TOP AU18-CORP-3385 145.004 2021-04-23 09:50:15.763 1498.906 00:06:40
33 ROCKY TOP AU19-ARPU-29022 145.004 2021-04-23 09:51:21.081 1489.383 00:07:46
34 TOPIGEONUSA AU19-CORP-4913 152.123 2021-04-23 10:00:00.521 1487.349 00:08:23
35 TIM GRAVES AU15-CORP-3096 143.484 2021-04-23 09:50:59.759 1476.834 00:09:07
36 TIM GRAVES AU17-CORP-0879 143.484 2021-04-23 09:52:19.471 1465.448 00:10:27
37 RUETER FAMILY LOFT AU20-CORP-4574 178.741 2021-04-23 10:35:16.284 1461.334 00:13:37
38 RUETER FAMILY LOFT AU19-CORP-5250 178.741 2021-04-23 10:40:21.344 1427.617 00:18:42
39 RUETER FAMILY LOFT AU20-CORP-4572 178.741 2021-04-23 10:40:47.128 1424.838 00:19:08
40 RUETER FAMILY LOFT AU19-CORP-5432 178.741 2021-04-23 10:41:09.773 1422.406 00:19:31
41 TOPIGEONUSA AU18-CORP-3173 152.123 2021-04-23 10:09:13.863 1414.862 00:17:37
42 TIM GRAVES AU17-CORP-0834 143.484 2021-04-23 09:59:09.679 1409.526 00:17:17
43 AMERICAN LOFT AU19-CORP-4774 148.79 2021-04-23 10:05:55.763 1408.443 00:18:04
44 TOPIGEONUSA AU16-CORP-7994 152.123 2021-04-23 10:10:06.599 1408.320 00:18:29
45 AMERICAN LOFT AU20-CORP-5445 148.79 2021-04-23 10:06:03.372 1407.483 00:18:12
46 STEELE LOFT AU20-CORP-5032 152.432 2021-04-23 10:10:48.117 1406.066 00:18:50
47 AMERICAN LOFT AU17-CORP-0177 148.79 2021-04-23 10:06:26.677 1404.550 00:18:35
48 AMERICAN LOFT AU17-CORP-0096 148.79 2021-04-23 10:06:30.465 1404.075 00:18:39
49 AMERICAN LOFT AU20-CORP-5554 148.79 2021-04-23 10:07:43.308 1394.994 00:19:52
50 ROCKY TOP AU14-CORP-1542 145.004 2021-04-23 10:04:48.335 1380.953 00:21:13
51 AMERICAN LOFT AU18-CORP-2817 148.79 2021-04-23 10:12:32.599 1360.062 00:24:41
52 AMERICAN LOFT AU19-CORP-4654 148.79 2021-04-23 10:12:35.174 1359.759 00:24:43
53 AMERICAN LOFT AU19-CORP-4745 148.79 2021-04-23 10:16:35.830 1332.017 00:28:44
54 AMERICAN LOFT AU16-CORP-7557 148.79 2021-04-23 10:16:47.584 1330.691 00:28:56
55 AMERICAN LOFT AU19-CORP-4683 148.79 2021-04-23 10:17:00.843 1329.199 00:29:09
56 RUETER FAMILY LOFT AU20-CORP-4527 178.741 2021-04-23 11:03:34.548 1291.522 00:41:55
57 AMERICAN LOFT AU15-CORP-3683 148.79 2021-04-23 10:22:49.279 1291.141 00:34:58
58 TIM GRAVES AU20-CORP-3068 143.484 2021-04-23 10:17:14.884 1280.279 00:35:22
59 AMERICAN LOFT AU16-CORP-7444 148.79 2021-04-23 10:25:22.255 1275.112 00:37:31
60 RUETER FAMILY LOFT AU20-OTC-110 178.741 2021-04-23 11:10:25.759 1256.177 00:48:47
61 AMERICAN LOFT AU19-CORP-4620 148.79 2021-04-23 10:29:41.725 1248.815 00:41:50
62 RUETER FAMILY LOFT AU20-CORP-4683 178.741 2021-04-23 11:14:59.340 1233.714 00:53:20
63 TIM GRAVES AU15-ARPU-14510 143.484 2021-04-23 10:27:15.526 1218.441 00:45:23
64 TOPIGEONUSA AU20-CORP-4372 152.123 2021-04-23 10:40:39.008 1213.395 00:49:02
65 TIM GRAVES AU20-CORP-4742 143.484 2021-04-23 10:29:36.208 1204.811 00:47:44
66 TIM GRAVES AU20-CORP-4720 143.484 2021-04-23 10:57:02.365 1065.361 01:15:10
67 AMERICAN LOFT AU19-CORP-4665 148.79 2021-04-23 11:08:52.798 1052.197 01:21:01
68 AMERICAN LOFT AU19-CORP-4693 148.79 2021-04-23 11:09:30.631 1049.538 01:21:39
69 TIM GRAVES AU20-CORP-4710 143.484 2021-04-23 11:48:12.867 876.197 02:06:20
70 AMERICAN LOFT AU17-CORP-0078 148.79 2021-04-23 12:13:01.691 836.573 02:25:10
71 AMERICAN LOFT AU19-CORP-4698 148.79 2021-04-23 12:17:57.958 823.581 02:30:06
72 STEELE LOFT AU19-CORP-4009 152.432 2021-04-23 12:26:16.861 822.236 02:34:19
73 STEELE LOFT AU15-CORP-3873 152.432 2021-04-23 13:27:08.500 692.977 03:35:10
74 RUETER FAMILY LOFT AU20-CORP-4580 178.741 2021-04-23 14:46:53.325 673.787 04:25:14
75 AMERICAN LOFT AU19-CORP-4638 148.79 2021-04-23 13:31:52.045 668.264 03:44:00
76 TIM GRAVES AU20-CORP-4725 143.484 2021-04-23 13:29:23.113 648.542 03:47:31
77 RUETER FAMILY LOFT AU19-CORP-5413 178.741 2021-04-23 15:24:42.285 623.302 05:03:03
78 RUETER FAMILY LOFT AU20-CORP-4579 178.741 2021-04-23 17:18:22.099 508.732 06:56:43
79 AMERICAN LOFT AU19-CORP-4643 148.79 2021-04-23 17:30:54.112 415.074 07:43:02
80 AMERICAN LOFT AU20-CORP-5415 148.79 2021-04-23 19:01:30.991 362.945 09:13:39
AMERICAN LOFT AU19-CORP-4708 0 0000-00-00 00:00:00.000 0.000 00:00:00
LUCAS CRAMER AU18-CORP-2201 0 0000-00-00 00:00:00.000 0.000 00:00:00
LUCAS CRAMER AU19-CORP-4110 0 0000-00-00 00:00:00.000 0.000 00:00:00
LUCAS CRAMER AU19-LKC-4661 0 0000-00-00 00:00:00.000 0.000 00:00:00
LUCAS CRAMER AU19-LKC-4674 0 0000-00-00 00:00:00.000 0.000 00:00:00
LUCAS CRAMER AU20-AA-11668 0 0000-00-00 00:00:00.000 0.000 00:00:00
LUCAS CRAMER AU20-ARPU-22504 0 0000-00-00 00:00:00.000 0.000 00:00:00
LUCAS CRAMER AU20-CORP-4245 0 0000-00-00 00:00:00.000 0.000 00:00:00
LUCAS CRAMER AU20-FAM-0007 0 0000-00-00 00:00:00.000 0.000 00:00:00
LUCAS CRAMER AU20-GRPC-0547 0 0000-00-00 00:00:00.000 0.000 00:00:00
LUCAS CRAMER AU20-GSWC-0755 0 0000-00-00 00:00:00.000 0.000 00:00:00
LUCAS CRAMER AU20-HADJ-0025 0 0000-00-00 00:00:00.000 0.000 00:00:00
LUCAS CRAMER AU20-KFLY-2005 0 0000-00-00 00:00:00.000 0.000 00:00:00
LUCAS CRAMER AU20-NANZ-0042 0 0000-00-00 00:00:00.000 0.000 00:00:00
LUCAS CRAMER AU20-NEM-0634 0 0000-00-00 00:00:00.000 0.000 00:00:00
LUCAS CRAMER AU20-PUEB-20507 0 0000-00-00 00:00:00.000 0.000 00:00:00
LUCAS CRAMER AU20-RAC-2818 0 0000-00-00 00:00:00.000 0.000 00:00:00
LUCAS CRAMER AU20-TBW-20076 0 0000-00-00 00:00:00.000 0.000 00:00:00
LUCAS CRAMER CU20-CRPU-11568 0 0000-00-00 00:00:00.000 0.000 00:00:00
ROCKY TOP AU19-CORP-4466 0 0000-00-00 00:00:00.000 0.000 00:00:00
RUETER FAMILY LOFT AU20-CORP-4661 0 0000-00-00 00:00:00.000 0.000 00:00:00
RUETER FAMILY LOFT AU20-CORP-4684 0 0000-00-00 00:00:00.000 0.000 00:00:00
RUETER FAMILY LOFT AU20-CORP-4928 0 0000-00-00 00:00:00.000 0.000 00:00:00
TIM GRAVES AU20-CORP-4748 0 0000-00-00 00:00:00.000 0.000 00:00:00
TOPIGEONUSA AU20-CORP-4324 0 0000-00-00 00:00:00.000 0.000 00:00:00
TOPIGEONUSA AU20-CORP-4326 0 0000-00-00 00:00:00.000 0.000 00:00:00
TOPIGEONUSA AU20-CORP-4329 0 0000-00-00 00:00:00.000 0.000 00:00:00
TOPIGEONUSA AU20-CORP-4381 0 0000-00-00 00:00:00.000 0.000 00:00:00
TOPIGEONUSA AU20-CORP-5027 0 0000-00-00 00:00:00.000 0.000 00:00:00